Terminal Aerodrome Forecast
Issued by NWS

Home | Current Version | Previous Version | Text Only | Print | Product List | Glossary On
Versions: 1 2 3 4 5 6 7 8 9 10 11 12 13 14 15 16 17 18 19 20 21 22 23 24 25 26 27 28 29 30 31
000
FTUS46 KLOX 062342
TAFSBP
TAF
KSBP 062342Z 0700/0724 31015G22KT P6SM VCSH SCT016 BKN035
     FM070100 30012KT P6SM SCT030 BKN040
     FM070300 29007KT P6SM SCT020 BKN040
     FM070700 VRB03KT P6SM BKN015 OVC030
     FM071700 26007KT P6SM SCT020 OVC030 PROB30 0718/0721 P6SM -SHRA
      OVC030
     FM072100 24011KT P6SM SCT025 OVC035 PROB30 0721/0724 P6SM -SHRA
      BKN030=

USA.gov is the U.S. government's official web portal to all federal, state and local government web resources and services.